GCLPGCLA

Guest
Details From GCLP - Gran Canaria
To GCLA - La Palma
Flight Number -
Tags generated
Created
Modified
Stats Distance 137 nm / 254 km
Max Altitude 14,500 ft / 4,420 m
Waypoints 3
Social Downloads 4
Likes 1
Share

Download

Looking for another format? Having issues loading an existing format? Contact us
Advertisement - Login to hide

Notes

Basic altitude profile: - Ascent Rate: 1500ft/min - Ascent Speed: 90kts - Cruise Altitude: 10000ft - Cruise Speed: 140kts - Descent Rate: 1000ft/min - Descent Speed: 90kts Options: - Use NATs: yes - Use PACOTS: yes - Use low airways: no - Use high airways: yes

Route

GCLP TFS GCLA

ID Type Via Altitude (ft/m) Position (lat/lon) Dist (leg/tot) Name
O GCLP APT - 0 / 0 27.93154 / -15.38559 - / 0 nm Gran Canaria
TFS VOR - 14,500 / 4,420 28.00245 / -16.68793 69 / 69 nm TENERIFE SUR VOR-DME
O GCLA APT - 0 / 0 28.62648 / -17.75561 67 / 136 nm La Palma

Altitude Profile

Advertisement - Login to hide

GCLP

Details ICAO GCLP (LPA)
Name Gran Canaria
Region Canary Islands
Timezone Atlantic/Canary (UTC+1.0)
Stats Elevation 78 ft / 24 m (AMSL)
Location 27.931600° -15.385600°
Runways 2
Magnetic Variation 4.269° W

METAR

GCLP 241130Z 02027KT 9999 FEW020 26/18 Q1015 NOSIG

Decode

TAF

TAF GCLP 240800Z 2409/2509 01025KT 9999 FEW020 TX28/2414Z TN22/2506Z= TAF KNFG 2409/2509 VRB05KT 9999 OVC008 QNH2997INS FM241930 24010KT 9999 SCT030 QNH2992INS BECMG 2501/2503 VRB06KT 9999 BKN025 QNH2994INS T18/2512Z T25/2520Z

Decode

Departure Runways

ID Width Length Bearing (true/mag) Surface Threshold Overrun Markings Lighting
03L 148 ft / 45 m 10,201 ft / 3,109 m 21.35° / 25.62° ASPHALT 0 ft / 0 m 656 ft / 200 m PREC-APP CENTERLINE EDGE THRESHOLD ALSF-I REIL-OMNI
03R 148 ft / 45 m 10,180 ft / 3,103 m 21.32° / 25.59° ASPHALT 0 ft / 0 m 656 ft / 200 m PREC-APP CENTERLINE EDGE THRESHOLD ALSF-I REIL-OMNI
21L 148 ft / 45 m 10,180 ft / 3,103 m 201.33° / 205.60° ASPHALT 0 ft / 0 m 666 ft / 203 m PREC-APP CENTERLINE EDGE THRESHOLD MALS REIL-OMNI
21R 148 ft / 45 m 10,201 ft / 3,109 m 201.35° / 205.62° ASPHALT 0 ft / 0 m 738 ft / 225 m PREC-APP CENTERLINE EDGE THRESHOLD MALS REIL-OMNI

GCLA

Details ICAO GCLA (SPC)
Name La Palma
Region Canary Islands
Timezone Atlantic/Canary (UTC+1.0)
Stats Elevation 108 ft / 33 m (AMSL)
Location 28.626200° -17.755600°
Runways 1
Magnetic Variation 5.095° W

METAR

GCLA 241130Z 02015KT 9999 FEW024 BKN030 24/19 Q1018

Decode

TAF

TAF GCLA 240800Z 2409/2509 01016KT 9999 FEW030 TX24/2414Z TN21/2506Z

Decode

Destination Runways

ID Width Length Bearing (true/mag) Surface Threshold Overrun Markings Lighting
18 148 ft / 45 m 7,411 ft / 2,259 m 179.00° / 184.10° ASPHALT 164 ft / 50 m 0 ft / 0 m PREC-APP EDGE THRESHOLD REIL-OMNI
36 148 ft / 45 m 7,411 ft / 2,259 m 359.00° / 4.10° ASPHALT 459 ft / 140 m 0 ft / 0 m PREC-APP EDGE THRESHOLD SALS REIL-OMNI

Popular Alternatives